Graeagle, California
Current Conditions -  °F | °C
As of 5:52 PM on Sunday 21 Dec 2014 (Local Time) from KBLU Reporting Station
Overcast Overcast  
Wind Chill: 45°   Ceiling: 1900
Heat Index: 47°   Visibility: 10mi
Dew Point: 43°   Wind: 5mph
Humidity: 86%   Direction: 340°NNW
Pressure: 30.33"   Gusts: NA
Location:  39.7722°N, 120.711°W
Report Text: KBLU 220152Z AUTO 34004KT 10SM FEW012 BKN019 OVC028 08/06 A3033 RMK AO2 RAE01 SLP246 P0000 T00830061
Loading
Personal Weather Stations






























Interactive Weather Map New forecast layout! Learn more

10-Day Weather Forecast

Advertisements
Track Severe Weather on mobile